createdAt,value
2022-10-21T00:00:06.274Z,24.20
2022-10-21T00:04:50.988Z,28.20
2022-10-21T00:07:13.296Z,23.48
2022-10-21T00:09:35.631Z,27.60
2022-10-21T00:11:57.960Z,22.53
2022-10-21T00:14:20.305Z,25.35
2022-10-21T00:16:42.644Z,28.23
2022-10-21T00:19:05.013Z,25.47
2022-10-21T00:21:27.364Z,24.43
2022-10-21T00:23:52.666Z,24.02
2022-10-21T00:26:15.356Z,23.00
2022-10-21T00:28:37.731Z,25.58
2022-10-21T00:31:00.112Z,24.33
2022-10-21T00:33:22.531Z,25.67
2022-10-21T00:35:57.449Z,22.52
2022-10-21T00:38:19.869Z,26.33
2022-10-21T00:40:42.194Z,21.85
2022-10-21T00:43:04.530Z,23.55
2022-10-21T00:45:28.906Z,21.40
2022-10-21T00:47:54.800Z,28.52
2022-10-21T00:50:41.735Z,26.27
2022-10-21T00:53:07.171Z,27.02
2022-10-21T00:55:33.754Z,23.15
2022-10-21T00:57:56.142Z,25.63
2022-10-21T01:00:18.531Z,21.48
2022-10-21T01:02:40.867Z,24.33
2022-10-21T01:05:03.815Z,22.88
2022-10-21T01:07:26.218Z,26.58
2022-10-21T01:09:48.521Z,23.10
2022-10-21T01:12:58.874Z,21.50
2022-10-21T01:15:36.109Z,24.65
2022-10-21T01:18:09.424Z,22.17
2022-10-21T01:21:08.854Z,24.75
2022-10-21T01:23:54.981Z,25.10
2022-10-21T01:26:49.013Z,20.95
2022-10-21T01:32:02.950Z,25.88
2022-10-21T01:35:06.951Z,24.92
2022-10-21T01:37:57.780Z,19.90
2022-10-21T01:40:55.366Z,21.63
2022-10-21T01:43:43.643Z,21.77
2022-10-21T01:46:15.767Z,22.60
2022-10-21T01:48:42.117Z,22.83
2022-10-21T01:51:06.607Z,21.45
2022-10-21T01:53:40.486Z,30.35
2022-10-21T01:56:02.824Z,25.73
2022-10-21T01:58:28.922Z,20.17
2022-10-21T02:00:52.250Z,28.38
2022-10-21T02:05:49.390Z,20.08
2022-10-21T02:08:11.743Z,22.45
2022-10-21T02:10:47.548Z,24.13
2022-10-21T02:13:11.831Z,26.70
2022-10-21T02:15:34.271Z,21.00
2022-10-21T02:18:03.083Z,23.97
2022-10-21T02:20:26.309Z,23.15
2022-10-21T02:22:48.697Z,21.02
2022-10-21T02:25:23.109Z,20.85
2022-10-21T02:27:45.497Z,22.80
2022-10-21T02:30:08.600Z,20.40
2022-10-21T02:33:11.493Z,19.90
2022-10-21T02:35:46.499Z,22.67
2022-10-21T02:38:13.938Z,22.65
2022-10-21T02:40:50.064Z,18.42
2022-10-21T02:43:34.218Z,25.83
2022-10-21T02:46:02.169Z,26.10
2022-10-21T02:48:24.492Z,28.25
2022-10-21T02:50:46.837Z,23.00
2022-10-21T02:53:09.694Z,21.93
2022-10-21T02:55:32.027Z,21.33
2022-10-21T02:57:54.410Z,27.37
2022-10-21T03:00:16.839Z,20.40
2022-10-21T03:02:39.172Z,23.33
2022-10-21T03:05:01.555Z,22.40
2022-10-21T03:07:23.889Z,24.20
2022-10-21T03:09:46.191Z,23.17
2022-10-21T03:12:08.521Z,27.23
2022-10-21T03:14:30.839Z,28.30
2022-10-21T03:16:53.156Z,25.63
2022-10-21T03:19:15.483Z,24.80
2022-10-21T03:21:37.826Z,23.80
2022-10-21T03:24:00.187Z,22.83
2022-10-21T03:26:22.605Z,22.65
2022-10-21T03:28:44.917Z,26.52
2022-10-21T03:31:08.127Z,28.23
2022-10-21T03:33:30.431Z,23.42
2022-10-21T03:35:52.831Z,25.40
2022-10-21T03:38:15.175Z,22.77
2022-10-21T03:40:37.517Z,19.70
2022-10-21T03:43:00.024Z,25.33
2022-10-21T03:45:22.515Z,22.30
2022-10-21T03:47:44.890Z,23.40
2022-10-21T03:50:11.845Z,25.02
2022-10-21T03:52:36.629Z,30.00
2022-10-21T03:54:59.208Z,24.92
2022-10-21T03:57:21.553Z,23.65
2022-10-21T03:59:43.878Z,31.90
2022-10-21T04:02:06.343Z,25.33
2022-10-21T04:04:28.753Z,24.23
2022-10-21T04:06:51.169Z,22.00
2022-10-21T04:09:13.598Z,22.63
2022-10-21T04:11:36.009Z,26.90
2022-10-21T04:13:58.350Z,27.07
2022-10-21T04:16:21.302Z,24.03
2022-10-21T04:18:43.651Z,28.67
2022-10-21T04:21:06.091Z,23.15
2022-10-21T04:23:28.517Z,25.38
2022-10-21T04:25:50.941Z,25.20
2022-10-21T04:28:13.269Z,24.50
2022-10-21T04:30:35.599Z,23.07
2022-10-21T04:32:57.946Z,27.23
2022-10-21T04:35:20.268Z,27.13
2022-10-21T04:37:22.396Z,29.98
2022-10-21T04:39:24.594Z,38.22
2022-10-21T04:41:26.771Z,26.25
2022-10-21T04:43:29.586Z,25.60
2022-10-21T04:45:31.680Z,31.00
2022-10-21T04:47:33.795Z,25.00
2022-10-21T04:49:35.939Z,25.20
2022-10-21T04:51:38.054Z,31.90
2022-10-21T04:53:40.214Z,28.38
2022-10-21T04:55:42.322Z,27.77
2022-10-21T04:57:44.519Z,26.48
2022-10-21T04:59:46.998Z,27.83
2022-10-21T05:01:49.132Z,25.08
2022-10-21T05:03:51.255Z,27.85
2022-10-21T05:05:53.555Z,31.20
2022-10-21T05:07:55.650Z,26.75
2022-10-21T05:09:57.726Z,28.60
2022-10-21T05:11:59.885Z,28.95
2022-10-21T05:14:02.108Z,28.27
2022-10-21T05:16:04.630Z,28.80
2022-10-21T05:18:06.739Z,24.17
2022-10-21T05:20:10.249Z,27.10
2022-10-21T05:22:12.830Z,26.15
2022-10-21T05:24:15.617Z,29.45
2022-10-21T05:26:17.755Z,30.67
2022-10-21T05:28:20.301Z,29.58
2022-10-21T05:30:22.382Z,29.75
2022-10-21T05:32:24.805Z,27.98
2022-10-21T05:34:26.906Z,32.33
2022-10-21T05:36:29.017Z,30.88
2022-10-21T05:38:31.265Z,31.48
2022-10-21T05:40:33.433Z,29.52
2022-10-21T05:42:35.776Z,29.90
2022-10-21T05:44:37.991Z,26.23
2022-10-21T05:46:40.100Z,28.50
2022-10-21T05:48:42.224Z,33.05
2022-10-21T05:50:45.869Z,26.15
2022-10-21T05:52:47.972Z,31.25
2022-10-21T05:54:50.082Z,29.85
2022-10-21T05:56:55.046Z,25.33
2022-10-21T05:58:57.161Z,32.85
2022-10-21T06:00:59.561Z,31.10
2022-10-21T06:03:01.708Z,33.63
2022-10-21T06:05:04.088Z,29.92
2022-10-21T06:07:06.287Z,33.35
2022-10-21T06:09:08.451Z,28.73
2022-10-21T06:11:16.655Z,25.38
2022-10-21T06:13:18.773Z,23.83
2022-10-21T06:15:20.933Z,28.33
2022-10-21T06:17:23.146Z,33.33
2022-10-21T06:19:25.327Z,30.48
2022-10-21T06:21:27.447Z,38.78
2022-10-21T06:23:29.547Z,30.00
2022-10-21T06:25:31.674Z,31.48
2022-10-21T06:27:33.846Z,30.13
2022-10-21T06:29:35.969Z,27.33
2022-10-21T06:31:38.079Z,29.08
2022-10-21T06:33:40.215Z,34.65
2022-10-21T06:35:42.302Z,40.53
2022-10-21T06:37:44.579Z,32.10
2022-10-21T06:39:46.765Z,28.48
2022-10-21T06:41:48.893Z,31.30
2022-10-21T06:43:51.014Z,34.35
2022-10-21T06:45:53.144Z,29.13
2022-10-21T06:47:55.245Z,27.83
2022-10-21T06:49:57.442Z,34.63
2022-10-21T06:51:59.542Z,26.45
2022-10-21T06:54:01.668Z,25.17
2022-10-21T06:56:09.128Z,27.63
2022-10-21T06:58:11.220Z,27.80
2022-10-21T07:00:13.950Z,28.00
2022-10-21T07:04:18.018Z,27.90
2022-10-21T07:06:20.199Z,28.05
2022-10-21T07:08:22.535Z,23.15
2022-10-21T07:10:36.471Z,27.83
2022-10-21T07:12:38.674Z,34.85
2022-10-21T07:14:40.815Z,26.60
2022-10-21T07:16:43.001Z,33.83
2022-10-21T07:18:45.197Z,31.35
2022-10-21T07:20:47.308Z,25.70
2022-10-21T07:22:49.400Z,31.92
2022-10-21T07:24:51.613Z,24.95
2022-10-21T07:26:53.757Z,24.52
2022-10-21T07:28:58.166Z,28.98
2022-10-21T07:31:00.283Z,29.30
2022-10-21T07:33:02.361Z,28.27
2022-10-21T07:35:04.847Z,26.15
2022-10-21T07:37:07.039Z,29.40
2022-10-21T07:39:13.857Z,27.20
2022-10-21T07:41:37.279Z,25.23
2022-10-21T07:43:39.446Z,28.02
2022-10-21T07:45:42.518Z,33.17
2022-10-21T07:47:44.614Z,31.17
2022-10-21T07:49:46.731Z,31.50
2022-10-21T07:51:50.560Z,33.75
2022-10-21T07:53:55.027Z,31.27
2022-10-21T07:56:10.920Z,32.10
2022-10-21T07:58:13.083Z,31.92
2022-10-21T08:00:15.243Z,38.10
2022-10-21T08:02:17.414Z,35.53
2022-10-21T08:04:21.997Z,33.13
2022-10-21T08:06:25.206Z,32.42
2022-10-21T08:08:27.778Z,32.58
2022-10-21T08:12:31.988Z,30.45
2022-10-21T08:14:34.567Z,35.20
2022-10-21T08:16:36.899Z,31.27
2022-10-21T08:18:39.008Z,28.25
2022-10-21T08:20:43.404Z,27.75
2022-10-21T08:22:45.523Z,33.00
2022-10-21T08:24:47.622Z,28.85
2022-10-21T08:26:51.050Z,28.48
2022-10-21T08:28:53.215Z,30.60
2022-10-21T08:31:15.500Z,34.83
2022-10-21T08:33:17.663Z,30.08
2022-10-21T08:35:19.781Z,27.48
2022-10-21T08:37:24.925Z,26.40
2022-10-21T08:39:29.140Z,26.70
2022-10-21T08:41:31.187Z,24.70
2022-10-21T08:43:34.418Z,27.08
2022-10-21T08:46:01.778Z,26.77
2022-10-21T08:48:05.867Z,28.73
2022-10-21T08:50:15.789Z,27.10
2022-10-21T08:52:22.289Z,28.23
2022-10-21T08:55:00.242Z,35.70
2022-10-21T08:57:03.194Z,34.92
2022-10-21T08:59:20.776Z,25.77
2022-10-21T09:01:39.619Z,26.77
2022-10-21T09:03:55.203Z,25.55
2022-10-21T09:06:36.249Z,27.20
2022-10-21T09:09:07.983Z,29.90
2022-10-21T09:11:24.803Z,28.05
2022-10-21T09:13:46.801Z,29.27
2022-10-21T09:16:09.576Z,26.83
2022-10-21T09:18:56.014Z,33.55
2022-10-21T09:21:22.613Z,35.78
2022-10-21T09:23:46.956Z,26.10
2022-10-21T09:26:17.453Z,26.55
2022-10-21T09:28:19.569Z,28.73
2022-10-21T09:30:22.991Z,25.85
2022-10-21T09:34:47.669Z,27.58
2022-10-21T09:36:50.301Z,26.67
2022-10-21T09:39:00.280Z,29.30
2022-10-21T09:41:03.736Z,23.23
2022-10-21T09:43:05.946Z,31.77
2022-10-21T09:45:22.298Z,24.90
2022-10-21T09:47:24.843Z,25.83
2022-10-21T09:49:54.718Z,22.60
2022-10-21T09:51:52.751Z,32.78
2022-10-21T09:53:57.880Z,27.50
2022-10-21T09:56:05.230Z,27.15
2022-10-21T09:58:07.317Z,24.48
2022-10-21T10:00:12.830Z,25.15
2022-10-21T10:02:16.202Z,50.83
2022-10-21T10:04:31.124Z,30.70
2022-10-21T10:06:38.950Z,30.10
2022-10-21T10:08:47.614Z,33.63
2022-10-21T10:10:49.908Z,28.20
2022-10-21T10:12:58.710Z,26.92
2022-10-21T10:15:29.351Z,29.88
2022-10-21T10:17:51.972Z,29.10
2022-10-21T10:20:19.823Z,26.63
2022-10-21T10:22:45.843Z,24.20
2022-10-21T10:25:11.728Z,24.85
2022-10-21T10:27:34.150Z,28.33
2022-10-21T10:29:56.955Z,31.67
2022-10-21T10:32:19.338Z,25.40
2022-10-21T10:34:53.674Z,21.83
2022-10-21T10:37:26.140Z,24.92
2022-10-21T10:39:51.560Z,29.17
2022-10-21T10:42:28.819Z,22.00
2022-10-21T10:44:59.879Z,22.52
2022-10-21T10:47:42.042Z,26.08
2022-10-21T10:50:04.689Z,24.88
2022-10-21T10:52:27.151Z,30.48
2022-10-21T10:55:12.664Z,31.00
2022-10-21T10:57:44.349Z,30.92
2022-10-21T11:00:20.200Z,24.75
2022-10-21T11:02:49.778Z,30.95
2022-10-21T11:05:38.433Z,27.77
2022-10-21T11:08:17.842Z,27.92
2022-10-21T11:10:54.388Z,24.98
2022-10-21T11:13:19.514Z,33.63
2022-10-21T11:15:53.650Z,27.50
2022-10-21T11:19:15.417Z,28.20
2022-10-21T11:21:46.282Z,30.38
2022-10-21T11:24:40.711Z,26.65
2022-10-21T11:27:21.927Z,25.13
2022-10-21T11:30:11.867Z,28.00
2022-10-21T11:33:11.217Z,37.38
2022-10-21T11:36:24.423Z,35.10
2022-10-21T11:39:27.120Z,26.90
2022-10-21T11:42:11.846Z,36.47
2022-10-21T11:45:17.465Z,27.88
2022-10-21T11:48:09.369Z,34.60
2022-10-21T11:50:38.718Z,29.23
2022-10-21T11:53:36.759Z,23.27
2022-10-21T11:56:25.246Z,22.95
2022-10-21T12:02:43.171Z,19.55
2022-10-21T12:05:33.874Z,23.50
2022-10-21T12:08:32.327Z,29.23
2022-10-21T12:11:13.779Z,22.80
2022-10-21T12:13:46.799Z,23.05
2022-10-21T12:16:17.643Z,23.55
2022-10-21T12:18:51.326Z,25.15
2022-10-21T12:21:24.099Z,18.35
2022-10-21T12:23:48.000Z,31.67
2022-10-21T12:26:32.334Z,21.73
2022-10-21T12:29:44.077Z,16.67
2022-10-21T12:32:11.503Z,22.55
2022-10-21T12:34:33.920Z,25.45
2022-10-21T12:36:56.768Z,23.17
2022-10-21T12:39:34.699Z,21.38
2022-10-21T12:42:13.608Z,22.77
2022-10-21T12:44:36.516Z,19.80
2022-10-21T12:50:31.328Z,24.98
2022-10-21T12:53:24.764Z,21.88
2022-10-21T12:56:01.962Z,25.40
2022-10-21T12:58:44.958Z,22.33
2022-10-21T13:01:29.211Z,21.37
2022-10-21T13:03:53.109Z,24.77
2022-10-21T13:06:15.566Z,25.33
2022-10-21T13:08:52.632Z,21.50
2022-10-21T13:11:24.922Z,20.77
2022-10-21T13:13:48.101Z,20.75
2022-10-21T13:16:19.209Z,21.55
2022-10-21T13:19:15.603Z,26.27
2022-10-21T13:21:47.598Z,25.88
2022-10-21T13:24:13.367Z,22.83
2022-10-21T13:26:35.708Z,20.48
2022-10-21T13:29:04.361Z,20.65
2022-10-21T13:31:26.851Z,19.13
2022-10-21T13:33:52.623Z,22.42
2022-10-21T13:36:15.342Z,21.20
2022-10-21T13:38:47.229Z,18.47
2022-10-21T13:41:29.477Z,22.52
2022-10-21T13:44:03.487Z,19.15
2022-10-21T13:46:31.108Z,32.50
2022-10-21T13:48:53.767Z,24.65
2022-10-21T13:51:28.679Z,28.85
2022-10-21T13:53:58.314Z,24.73
2022-10-21T13:56:32.458Z,26.98
2022-10-21T13:58:54.938Z,22.20
2022-10-21T14:01:39.827Z,24.08
2022-10-21T14:04:15.126Z,25.35
2022-10-21T14:06:39.170Z,28.55
2022-10-21T14:09:04.348Z,24.83
2022-10-21T14:11:33.484Z,24.42
2022-10-21T14:14:02.333Z,24.02
2022-10-21T14:16:38.796Z,24.20
2022-10-21T14:19:11.610Z,30.75
2022-10-21T14:21:38.276Z,23.95
2022-10-21T14:24:00.646Z,20.63
2022-10-21T14:26:23.073Z,24.20
2022-10-21T14:28:45.785Z,23.20
2022-10-21T14:31:11.989Z,25.92
2022-10-21T14:33:34.622Z,23.38
2022-10-21T14:36:19.825Z,25.03
2022-10-21T14:39:03.773Z,23.77
2022-10-21T14:44:25.417Z,29.00
2022-10-21T14:46:50.063Z,32.28
2022-10-21T14:49:41.974Z,27.55
2022-10-21T14:52:06.829Z,25.85
2022-10-21T14:54:47.533Z,26.48
2022-10-21T14:57:42.750Z,26.10
2022-10-21T15:00:07.267Z,27.02
2022-10-21T15:02:33.457Z,24.73
2022-10-21T15:04:58.139Z,23.08
2022-10-21T15:07:39.238Z,23.33
2022-10-21T15:10:04.584Z,28.23
2022-10-21T15:12:26.972Z,30.58
2022-10-21T15:14:49.323Z,24.73
2022-10-21T15:17:14.331Z,26.90
2022-10-21T15:19:45.154Z,24.48
2022-10-21T15:22:15.474Z,26.80
2022-10-21T15:24:44.359Z,25.98
2022-10-21T15:27:06.760Z,24.20
2022-10-21T15:29:37.784Z,27.33
2022-10-21T15:32:00.742Z,25.92
2022-10-21T15:34:23.105Z,25.95
2022-10-21T15:36:45.587Z,32.22
2022-10-21T15:39:09.428Z,34.47
2022-10-21T15:41:32.094Z,26.58
2022-10-21T15:44:02.350Z,32.00
2022-10-21T15:46:28.911Z,29.83
2022-10-21T15:48:51.296Z,30.88
2022-10-21T15:51:13.792Z,28.00
2022-10-21T15:53:38.689Z,30.55
2022-10-21T15:56:03.438Z,27.35
2022-10-21T15:58:25.895Z,24.07
2022-10-21T16:00:48.297Z,28.90
2022-10-21T16:03:10.682Z,29.80
2022-10-21T16:05:33.048Z,29.40
2022-10-21T16:07:55.555Z,31.05
2022-10-21T16:10:27.822Z,34.17
2022-10-21T16:12:50.197Z,31.83
2022-10-21T16:15:12.826Z,34.50
2022-10-21T16:17:35.343Z,32.55
2022-10-21T16:19:57.700Z,29.38
2022-10-21T16:22:22.026Z,33.03
2022-10-21T16:24:44.449Z,32.80
2022-10-21T16:27:11.868Z,33.23
2022-10-21T16:29:34.251Z,29.90
2022-10-21T16:31:56.626Z,31.10
2022-10-21T16:34:19.558Z,40.93
2022-10-21T16:36:41.950Z,32.50
2022-10-21T16:39:16.195Z,32.85
2022-10-21T16:41:38.643Z,35.72
2022-10-21T16:44:01.185Z,35.47
2022-10-21T16:46:32.846Z,29.17
2022-10-21T16:48:55.179Z,31.20
2022-10-21T16:51:17.858Z,38.35
2022-10-21T16:53:40.473Z,30.95
2022-10-21T16:56:03.710Z,33.88
2022-10-21T17:00:48.818Z,30.73
2022-10-21T17:03:12.117Z,36.63
2022-10-21T17:08:01.801Z,32.35
2022-10-21T17:10:24.134Z,35.27
2022-10-21T17:12:46.455Z,33.58
2022-10-21T17:15:09.610Z,34.30
2022-10-21T17:17:32.103Z,36.40
2022-10-21T17:19:54.439Z,40.75
2022-10-21T17:22:17.213Z,41.20
2022-10-21T17:24:39.555Z,32.92
2022-10-21T17:27:01.945Z,34.90
2022-10-21T17:29:24.431Z,37.38
2022-10-21T17:31:46.796Z,33.23
2022-10-21T17:34:21.333Z,36.08
2022-10-21T17:36:43.721Z,43.47
2022-10-21T17:39:06.128Z,36.73
2022-10-21T17:41:28.518Z,37.23
2022-10-21T17:43:50.900Z,35.70
2022-10-21T17:46:22.603Z,33.50
2022-10-21T17:48:45.844Z,32.95
2022-10-21T17:53:31.477Z,31.10
2022-10-21T17:56:04.890Z,36.97
2022-10-21T17:58:27.838Z,30.35
2022-10-21T18:00:50.289Z,38.95
2022-10-21T18:03:12.763Z,31.73
2022-10-21T18:05:35.223Z,37.17
2022-10-21T18:07:57.547Z,31.00
2022-10-21T18:10:20.176Z,33.60
2022-10-21T18:12:42.719Z,32.80
2022-10-21T18:15:05.744Z,41.42
2022-10-21T18:17:28.079Z,35.75
2022-10-21T18:19:51.399Z,46.77
2022-10-21T18:24:36.374Z,35.80
2022-10-21T18:26:58.675Z,41.07
2022-10-21T18:29:22.283Z,43.83
2022-10-21T18:31:44.613Z,37.60
2022-10-21T18:34:09.313Z,44.55
2022-10-21T18:36:32.067Z,51.05
2022-10-21T18:38:54.536Z,38.38
2022-10-21T18:41:20.558Z,42.85
2022-10-21T18:43:53.144Z,39.20
2022-10-21T18:46:15.501Z,54.30
2022-10-21T18:48:37.853Z,44.87
2022-10-21T18:51:08.217Z,41.42
2022-10-21T18:53:30.815Z,37.72
2022-10-21T18:55:53.172Z,40.03
2022-10-21T18:58:15.545Z,36.87
2022-10-21T19:00:37.996Z,47.90
2022-10-21T19:03:00.360Z,39.08
2022-10-21T19:05:24.341Z,40.17
2022-10-21T19:07:46.768Z,48.42
2022-10-21T19:10:09.242Z,38.07
2022-10-21T19:12:31.629Z,37.30
2022-10-21T19:14:54.025Z,39.72
2022-10-21T19:17:16.565Z,41.53
2022-10-21T19:19:39.643Z,41.53
2022-10-21T19:22:02.149Z,33.47
2022-10-21T19:24:24.668Z,36.53
2022-10-21T19:26:52.292Z,39.03
2022-10-21T19:29:16.696Z,36.22
2022-10-21T19:31:39.957Z,36.15
2022-10-21T19:36:24.681Z,37.40
2022-10-21T19:38:47.038Z,38.65
2022-10-21T19:41:11.256Z,38.53
2022-10-21T19:43:33.658Z,38.13
2022-10-21T19:45:57.465Z,42.53
2022-10-21T19:48:21.154Z,36.92
2022-10-21T19:50:47.923Z,43.15
2022-10-21T19:53:10.256Z,39.30
2022-10-21T19:55:33.120Z,43.58
2022-10-21T19:57:55.466Z,39.30
2022-10-21T20:00:17.890Z,45.22
2022-10-21T20:02:42.797Z,41.17
2022-10-21T20:05:05.650Z,38.33
2022-10-21T20:07:28.052Z,42.53
2022-10-21T20:09:50.400Z,41.15
2022-10-21T20:12:12.713Z,41.42
2022-10-21T20:14:35.067Z,39.35
2022-10-21T20:16:57.380Z,39.95
2022-10-21T20:19:19.718Z,47.72
2022-10-21T20:21:42.310Z,41.37
2022-10-21T20:24:05.178Z,48.38
2022-10-21T20:26:28.827Z,43.10
2022-10-21T20:28:51.694Z,45.10
2022-10-21T20:31:15.430Z,39.03
2022-10-21T20:33:43.212Z,42.00
2022-10-21T20:36:16.982Z,41.92
2022-10-21T20:38:39.471Z,45.50
2022-10-21T20:41:07.241Z,40.55
2022-10-21T20:43:30.134Z,44.90
2022-10-21T20:45:52.539Z,43.40
2022-10-21T20:48:14.910Z,43.60
2022-10-21T20:50:37.380Z,43.65
2022-10-21T20:52:59.932Z,38.38
2022-10-21T20:55:22.284Z,44.70
2022-10-21T20:57:44.692Z,45.70
2022-10-21T21:00:07.859Z,44.73
2022-10-21T21:02:30.201Z,43.95
2022-10-21T21:04:52.586Z,45.92
2022-10-21T21:07:14.981Z,44.17
2022-10-21T21:10:01.066Z,42.03
2022-10-21T21:12:19.662Z,43.65
2022-10-21T21:14:42.005Z,43.40
2022-10-21T21:17:04.417Z,37.20
2022-10-21T21:19:26.881Z,45.10
2022-10-21T21:21:49.363Z,39.70
2022-10-21T21:24:11.914Z,48.63
2022-10-21T21:26:38.656Z,39.28
2022-10-21T21:29:01.416Z,36.47
2022-10-21T21:31:25.333Z,40.83
2022-10-21T21:33:48.001Z,44.20
2022-10-21T21:35:50.144Z,41.28
2022-10-21T21:37:52.273Z,46.78
2022-10-21T21:39:54.433Z,44.15
2022-10-21T21:41:56.555Z,45.55
2022-10-21T21:43:58.776Z,46.35
2022-10-21T21:46:01.063Z,43.35
2022-10-21T21:48:03.353Z,40.92
2022-10-21T21:50:06.124Z,41.28
2022-10-21T21:54:10.960Z,42.95
2022-10-21T21:56:13.118Z,45.03
2022-10-21T21:58:34.307Z,46.47
2022-10-21T22:00:57.322Z,46.65
2022-10-21T22:03:21.599Z,48.53
2022-10-21T22:05:44.156Z,46.00
2022-10-21T22:08:06.659Z,47.90
2022-10-21T22:10:29.099Z,45.97
2022-10-21T22:12:51.596Z,44.50
2022-10-21T22:15:35.739Z,44.63
2022-10-21T22:17:56.551Z,38.88
2022-10-21T22:20:19.314Z,41.15
2022-10-21T22:22:41.753Z,44.83
2022-10-21T22:25:11.581Z,46.20
2022-10-21T22:27:33.961Z,42.78
2022-10-21T22:29:56.621Z,45.33
2022-10-21T22:32:19.041Z,42.47
2022-10-21T22:34:41.590Z,42.57
2022-10-21T22:37:03.974Z,39.67
2022-10-21T22:39:26.445Z,43.97
2022-10-21T22:41:48.840Z,49.55
2022-10-21T22:44:12.327Z,40.40
2022-10-21T22:46:35.041Z,49.28
2022-10-21T22:48:57.616Z,44.53
2022-10-21T22:51:20.583Z,44.27
2022-10-21T22:53:42.954Z,43.55
2022-10-21T22:56:05.435Z,47.87
2022-10-21T22:58:28.207Z,45.63
2022-10-21T23:00:50.808Z,42.15
2022-10-21T23:03:13.471Z,42.80
2022-10-21T23:05:35.852Z,43.58
2022-10-21T23:07:58.157Z,49.40
2022-10-21T23:10:20.520Z,44.38
2022-10-21T23:12:43.103Z,46.70
2022-10-21T23:15:06.676Z,48.42
2022-10-21T23:19:52.340Z,45.85
2022-10-21T23:24:37.687Z,48.42
2022-10-21T23:27:01.401Z,41.78
2022-10-21T23:29:23.946Z,42.72
2022-10-21T23:31:46.368Z,48.75
2022-10-21T23:34:09.521Z,41.88
2022-10-21T23:36:33.252Z,41.15
2022-10-21T23:38:56.375Z,48.55
2022-10-21T23:41:18.808Z,42.08
2022-10-21T23:43:41.162Z,43.43
2022-10-21T23:46:03.547Z,43.00
2022-10-21T23:48:26.034Z,42.47
2022-10-21T23:50:48.856Z,47.28
2022-10-21T23:53:11.244Z,50.10
2022-10-21T23:57:57.498Z,49.10
